Terminal Aerodrome Forecast
Issued by NWS Paducah, KY

Home | Current Version | Previous Version | Graphics & Text | Print | Product List | Glossary On
Versions: 1 2 3 4 5 6 7 8 9 10 11 12 13 14 15 16 17 18
000
FTUS43 KPAH 272300
TAFEVV
TAF
KEVV 272333Z 2800/2824 28012G18KT P6SM SKC
     FM280200 30008KT P6SM SKC
     FM281400 33010G15KT P6SM BKN035
     FM282200 33010KT P6SM SCT040=

USA.gov is the U.S. government's official web portal to all federal, state and local government web resources and services.